createdAt,value
2018-05-12T00:00:02.008Z,72.60
2018-05-12T00:01:06.584Z,72.80
2018-05-12T00:02:11.092Z,72.78
2018-05-12T00:03:15.595Z,72.85
2018-05-12T00:04:20.129Z,72.95
2018-05-12T00:05:24.944Z,73.15
2018-05-12T00:06:31.090Z,73.15
2018-05-12T00:07:35.573Z,73.19
2018-05-12T00:08:40.036Z,73.12
2018-05-12T00:09:44.535Z,73.20
2018-05-12T00:10:51.102Z,73.28
2018-05-12T00:11:55.583Z,73.29
2018-05-12T00:13:00.473Z,73.26
2018-05-12T00:14:04.937Z,73.40
2018-05-12T00:15:09.399Z,73.50
2018-05-12T00:16:13.890Z,73.48
2018-05-12T00:17:18.339Z,73.51
2018-05-12T00:18:23.894Z,73.39
2018-05-12T00:19:29.172Z,73.21
2018-05-12T00:20:33.961Z,73.10
2018-05-12T00:21:38.414Z,73.08
2018-05-12T00:22:42.916Z,72.97
2018-05-12T00:23:47.375Z,72.97
2018-05-12T00:24:51.912Z,73.25
2018-05-12T00:25:57.250Z,73.36
2018-05-12T00:27:01.743Z,73.61
2018-05-12T00:28:06.218Z,73.81
2018-05-12T00:29:10.692Z,73.81
2018-05-12T00:30:15.381Z,73.91
2018-05-12T00:31:20.030Z,73.96
2018-05-12T00:32:25.026Z,74.05
2018-05-12T00:33:29.576Z,74.04
2018-05-12T00:34:34.126Z,73.96
2018-05-12T00:35:38.729Z,73.92
2018-05-12T00:36:43.320Z,73.87
2018-05-12T00:37:47.990Z,73.77
2018-05-12T00:38:52.905Z,73.76
2018-05-12T00:39:57.454Z,73.85
2018-05-12T00:41:02.078Z,73.82
2018-05-12T00:42:06.678Z,73.92
2018-05-12T00:43:11.326Z,73.99
2018-05-12T00:44:15.900Z,74.14
2018-05-12T00:45:20.828Z,74.09
2018-05-12T00:46:25.401Z,74.09
2018-05-12T00:47:29.966Z,74.05
2018-05-12T00:48:34.646Z,74.04
2018-05-12T00:49:39.210Z,74.15
2018-05-12T00:50:43.770Z,74.13
2018-05-12T00:51:48.759Z,74.23
2018-05-12T00:52:53.350Z,74.24
2018-05-12T00:53:58.494Z,74.15
2018-05-12T00:55:03.731Z,74.13
2018-05-12T00:56:08.289Z,74.12
2018-05-12T00:57:12.816Z,74.32
2018-05-12T00:58:17.749Z,74.54
2018-05-12T00:59:22.352Z,74.63
2018-05-12T01:00:27.732Z,74.55
2018-05-12T01:01:32.346Z,74.41
2018-05-12T01:02:37.010Z,74.44
2018-05-12T01:03:41.639Z,74.47
2018-05-12T01:04:46.610Z,74.54
2018-05-12T01:05:51.189Z,74.58
2018-05-12T01:06:55.774Z,74.76
2018-05-12T01:08:00.242Z,74.96
2018-05-12T01:09:04.921Z,74.95
2018-05-12T01:10:09.422Z,75.05
2018-05-12T01:11:14.255Z,75.00
2018-05-12T01:12:18.749Z,75.10
2018-05-12T01:13:23.262Z,75.13
2018-05-12T01:14:27.825Z,75.13
2018-05-12T01:15:32.342Z,75.12
2018-05-12T01:16:36.845Z,75.10
2018-05-12T01:17:41.722Z,75.21
2018-05-12T01:18:46.189Z,75.14
2018-05-12T01:19:50.667Z,75.08
2018-05-12T01:20:55.720Z,75.07
2018-05-12T01:22:00.733Z,75.25
2018-05-12T01:23:06.379Z,75.27
2018-05-12T01:24:11.200Z,75.53
2018-05-12T01:25:15.661Z,75.61
2018-05-12T01:26:20.148Z,75.87
2018-05-12T01:27:25.850Z,75.98
2018-05-12T01:28:30.329Z,76.00
2018-05-12T01:29:34.813Z,75.97
2018-05-12T01:30:39.917Z,76.06
2018-05-12T01:31:44.369Z,76.24
2018-05-12T01:32:48.856Z,76.50
2018-05-12T01:33:53.418Z,76.58
2018-05-12T01:34:58.241Z,76.71
2018-05-12T01:36:02.799Z,76.77
2018-05-12T01:37:18.388Z,76.84
2018-05-12T01:38:23.010Z,76.92
2018-05-12T01:39:28.726Z,76.89
2018-05-12T01:40:33.802Z,76.80
2018-05-12T01:41:39.918Z,76.84
2018-05-12T01:42:44.465Z,76.90
2018-05-12T01:44:04.978Z,76.76
2018-05-12T01:45:09.644Z,76.70
2018-05-12T01:46:14.715Z,76.72
2018-05-12T01:47:19.231Z,76.73
2018-05-12T01:48:23.789Z,76.69
2018-05-12T01:49:28.693Z,76.67
2018-05-12T01:50:33.562Z,76.58
2018-05-12T01:51:38.116Z,76.45
2018-05-12T01:52:42.754Z,76.49
2018-05-12T01:53:47.301Z,76.43
2018-05-12T01:54:51.894Z,76.51
2018-05-12T01:55:56.425Z,76.52
2018-05-12T01:57:00.941Z,76.43
2018-05-12T01:58:05.569Z,76.41
2018-05-12T01:59:10.089Z,76.33
2018-05-12T02:00:14.633Z,76.29
2018-05-12T02:01:19.200Z,76.34
2018-05-12T02:02:23.727Z,76.40
2018-05-12T02:03:28.826Z,76.55
2018-05-12T02:04:33.447Z,76.61
2018-05-12T02:05:39.333Z,76.69
2018-05-12T02:06:43.958Z,76.61
2018-05-12T02:07:48.535Z,76.51
2018-05-12T02:08:53.487Z,76.66
2018-05-12T02:09:58.489Z,76.72
2018-05-12T02:11:03.133Z,76.83
2018-05-12T02:12:07.731Z,76.99
2018-05-12T02:13:13.629Z,77.12
2018-05-12T02:14:18.154Z,77.04
2018-05-12T02:15:22.733Z,76.95
2018-05-12T02:16:27.807Z,77.02
2018-05-12T02:17:32.372Z,77.06
2018-05-12T02:18:36.917Z,76.97
2018-05-12T02:19:41.447Z,76.93
2018-05-12T02:20:46.010Z,76.98
2018-05-12T02:21:50.542Z,77.00
2018-05-12T02:22:55.471Z,77.11
2018-05-12T02:24:00.038Z,77.20
2018-05-12T02:25:04.613Z,77.27
2018-05-12T02:26:09.189Z,77.28
2018-05-12T02:27:13.758Z,77.31
2018-05-12T02:28:18.318Z,77.40
2018-05-12T02:29:23.341Z,77.38
2018-05-12T02:30:28.015Z,77.26
2018-05-12T02:31:32.639Z,77.21
2018-05-12T02:32:37.248Z,77.17
2018-05-12T02:33:41.774Z,77.09
2018-05-12T02:34:46.324Z,77.10
2018-05-12T02:35:51.285Z,77.12
2018-05-12T02:36:55.831Z,77.05
2018-05-12T02:38:00.469Z,77.02
2018-05-12T02:39:05.622Z,77.19
2018-05-12T02:40:10.158Z,77.41
2018-05-12T02:41:14.733Z,77.49
2018-05-12T02:42:19.748Z,77.56
2018-05-12T02:43:24.291Z,77.66
2018-05-12T02:44:28.854Z,77.72
2018-05-12T02:45:33.398Z,77.86
2018-05-12T02:46:37.952Z,77.89
2018-05-12T02:47:42.482Z,77.96
2018-05-12T02:48:47.440Z,77.94
2018-05-12T02:49:51.993Z,77.98
2018-05-12T02:50:56.573Z,77.95
2018-05-12T02:52:01.137Z,77.99
2018-05-12T02:53:05.710Z,77.93
2018-05-12T02:54:10.252Z,78.22
2018-05-12T02:55:15.252Z,78.32
2018-05-12T02:56:20.890Z,78.34
2018-05-12T02:57:25.416Z,78.45
2018-05-12T02:58:29.970Z,78.52
2018-05-12T02:59:34.675Z,78.60
2018-05-12T03:00:39.215Z,78.67
2018-05-12T03:01:44.028Z,78.64
2018-05-12T03:02:48.528Z,78.74
2018-05-12T03:03:53.018Z,78.75
2018-05-12T03:04:57.517Z,78.74
2018-05-12T03:06:02.002Z,78.86
2018-05-12T03:07:06.481Z,78.91
2018-05-12T03:08:11.385Z,78.96
2018-05-12T03:09:18.727Z,78.98
2018-05-12T03:10:25.848Z,79.01
2018-05-12T03:11:30.923Z,79.04
2018-05-12T03:12:35.398Z,78.98
2018-05-12T03:13:39.881Z,78.97
2018-05-12T03:14:44.734Z,79.04
2018-05-12T03:15:49.188Z,79.05
2018-05-12T03:16:53.646Z,79.09
2018-05-12T03:17:58.482Z,79.11
2018-05-12T03:19:02.984Z,78.97
2018-05-12T03:20:08.300Z,78.87
2018-05-12T03:21:13.511Z,78.85
2018-05-12T03:22:18.023Z,78.83
2018-05-12T03:23:22.502Z,78.88
2018-05-12T03:24:27.060Z,78.96
2018-05-12T03:25:31.566Z,79.07
2018-05-12T03:26:36.135Z,79.09
2018-05-12T03:27:40.952Z,79.10
2018-05-12T03:28:45.455Z,79.29
2018-05-12T03:29:49.960Z,79.45
2018-05-12T03:30:54.422Z,79.47
2018-05-12T03:31:59.013Z,79.45
2018-05-12T03:33:03.572Z,79.52
2018-05-12T03:34:08.541Z,79.43
2018-05-12T03:35:13.107Z,79.35
2018-05-12T03:36:18.016Z,79.39
2018-05-12T03:37:22.906Z,79.52
2018-05-12T03:38:27.824Z,79.61
2018-05-12T03:39:32.300Z,79.63
2018-05-12T03:40:38.179Z,79.61
2018-05-12T03:41:42.645Z,79.55
2018-05-12T03:42:47.118Z,79.55
2018-05-12T03:43:51.590Z,79.42
2018-05-12T03:44:56.913Z,79.29
2018-05-12T03:46:01.389Z,79.38
2018-05-12T03:47:06.307Z,79.47
2018-05-12T03:48:10.767Z,79.54
2018-05-12T03:49:15.404Z,79.63
2018-05-12T03:50:19.874Z,79.59
2018-05-12T03:51:24.579Z,79.66
2018-05-12T03:52:29.924Z,79.72
2018-05-12T03:53:34.731Z,79.80
2018-05-12T03:54:39.228Z,80.02
2018-05-12T03:55:43.822Z,80.13
2018-05-12T03:56:48.290Z,80.18
2018-05-12T03:57:52.729Z,80.15
2018-05-12T03:58:57.264Z,80.12
2018-05-12T04:00:02.403Z,80.13
2018-05-12T04:01:06.892Z,80.17
2018-05-12T04:02:11.837Z,80.29
2018-05-12T04:03:16.322Z,80.33
2018-05-12T04:04:25.127Z,80.32
2018-05-12T04:07:35.879Z,80.45
2018-05-12T04:10:46.450Z,80.18
2018-05-12T04:11:57.207Z,79.89
2018-05-12T04:13:01.767Z,79.91
2018-05-12T04:14:06.297Z,79.97
2018-05-12T04:15:10.859Z,79.93
2018-05-12T04:16:15.432Z,79.81
2018-05-12T04:17:20.004Z,79.73
2018-05-12T04:18:24.982Z,79.76
2018-05-12T04:19:29.623Z,79.79
2018-05-12T04:20:34.824Z,79.88
2018-05-12T04:21:39.418Z,80.08
2018-05-12T04:22:44.137Z,80.02
2018-05-12T04:23:48.812Z,79.86
2018-05-12T04:24:54.002Z,79.82
2018-05-12T04:25:59.701Z,79.72
2018-05-12T04:27:04.366Z,79.62
2018-05-12T04:28:08.949Z,79.51
2018-05-12T04:29:13.678Z,79.41
2018-05-12T04:30:18.531Z,79.37
2018-05-12T04:31:23.298Z,79.32
2018-05-12T04:32:27.827Z,79.28
2018-05-12T04:33:32.362Z,79.28
2018-05-12T04:34:36.898Z,79.37
2018-05-12T04:35:42.151Z,79.42
2018-05-12T04:36:46.752Z,79.42
2018-05-12T04:37:52.799Z,79.51
2018-05-12T04:38:57.707Z,79.51
2018-05-12T04:40:02.237Z,79.51
2018-05-12T04:41:06.789Z,79.40
2018-05-12T04:42:11.574Z,79.41
2018-05-12T04:43:16.175Z,79.43
2018-05-12T04:44:21.315Z,79.44
2018-05-12T04:45:25.991Z,79.39
2018-05-12T04:46:32.398Z,79.30
2018-05-12T04:47:36.972Z,79.37
2018-05-12T04:48:41.564Z,79.37
2018-05-12T04:49:46.142Z,79.25
2018-05-12T04:50:51.539Z,79.09
2018-05-12T04:51:56.233Z,79.03
2018-05-12T04:53:00.789Z,79.04
2018-05-12T04:54:05.539Z,79.19
2018-05-12T04:55:10.122Z,79.30
2018-05-12T04:56:14.680Z,79.23
2018-05-12T04:57:19.661Z,79.39
2018-05-12T04:58:24.230Z,79.58
2018-05-12T04:59:28.817Z,79.41
2018-05-12T05:00:33.418Z,79.35
2018-05-12T05:01:37.988Z,79.38
2018-05-12T05:02:42.509Z,79.46
2018-05-12T05:03:47.479Z,79.53
2018-05-12T05:04:51.976Z,79.54
2018-05-12T05:05:56.597Z,79.59
2018-05-12T05:07:01.036Z,79.54
2018-05-12T05:08:05.508Z,79.56
2018-05-12T05:09:09.970Z,79.50
2018-05-12T05:10:14.839Z,79.45
2018-05-12T05:11:19.674Z,79.41
2018-05-12T05:12:24.239Z,79.38
2018-05-12T05:13:28.679Z,79.31
2018-05-12T05:14:33.643Z,79.19
2018-05-12T05:15:38.467Z,79.19
2018-05-12T05:16:43.474Z,79.23
2018-05-12T05:17:48.271Z,79.16
2018-05-12T05:18:52.789Z,79.03
2018-05-12T05:19:57.280Z,79.04
2018-05-12T05:21:01.919Z,78.94
2018-05-12T05:22:06.930Z,78.80
2018-05-12T05:23:11.871Z,78.68
2018-05-12T05:24:16.380Z,78.72
2018-05-12T05:25:20.869Z,78.62
2018-05-12T05:26:25.363Z,78.61
2018-05-12T05:27:29.819Z,78.60
2018-05-12T05:28:34.361Z,78.65
2018-05-12T05:29:39.111Z,78.59
2018-05-12T05:30:43.625Z,78.66
2018-05-12T05:31:48.124Z,78.70
2018-05-12T05:32:53.275Z,78.72
2018-05-12T05:33:58.547Z,78.64
2018-05-12T05:35:03.095Z,78.63
2018-05-12T05:36:08.058Z,78.38
2018-05-12T05:37:12.532Z,78.29
2018-05-12T05:38:17.015Z,78.09
2018-05-12T05:39:21.448Z,78.13
2018-05-12T05:40:26.965Z,78.01
2018-05-12T05:41:31.525Z,78.02
2018-05-12T05:42:36.316Z,77.97
2018-05-12T05:43:40.841Z,77.97
2018-05-12T05:44:45.343Z,77.98
2018-05-12T05:45:49.834Z,78.00
2018-05-12T05:46:54.314Z,78.02
2018-05-12T05:47:58.776Z,78.05
2018-05-12T05:49:03.708Z,77.99
2018-05-12T05:50:08.320Z,77.96
2018-05-12T05:51:12.788Z,77.79
2018-05-12T05:52:17.265Z,77.74
2018-05-12T05:53:21.746Z,77.56
2018-05-12T05:54:26.349Z,77.42
2018-05-12T05:55:31.284Z,77.31
2018-05-12T05:56:35.737Z,77.25
2018-05-12T05:57:40.259Z,77.01
2018-05-12T05:58:44.839Z,76.78
2018-05-12T05:59:49.501Z,76.49
2018-05-12T06:00:54.084Z,76.43
2018-05-12T06:01:58.969Z,76.44
2018-05-12T06:03:03.585Z,76.44
2018-05-12T06:04:08.464Z,76.33
2018-05-12T06:05:13.048Z,76.20
2018-05-12T06:06:17.609Z,76.01
2018-05-12T06:07:22.171Z,75.83
2018-05-12T06:08:27.057Z,75.61
2018-05-12T06:09:31.538Z,75.49
2018-05-12T06:10:36.014Z,75.50
2018-05-12T06:11:40.601Z,75.40
2018-05-12T06:12:45.108Z,75.04
2018-05-12T06:13:49.576Z,74.86
2018-05-12T06:14:56.751Z,74.74
2018-05-12T06:16:01.266Z,74.58
2018-05-12T06:17:05.731Z,74.37
2018-05-12T06:18:10.341Z,74.09
2018-05-12T06:19:16.058Z,73.88
2018-05-12T06:20:20.610Z,74.00
2018-05-12T06:21:25.610Z,74.11
2018-05-12T06:22:31.343Z,74.17
2018-05-12T06:23:36.014Z,74.00
2018-05-12T06:24:40.991Z,74.00
2018-05-12T06:25:48.543Z,74.03
2018-05-12T06:26:53.398Z,73.79
2018-05-12T06:27:58.447Z,73.58
2018-05-12T06:29:02.986Z,73.47
2018-05-12T06:30:07.459Z,73.39
2018-05-12T06:31:12.024Z,73.33
2018-05-12T06:32:16.477Z,73.12
2018-05-12T06:33:20.953Z,72.96
2018-05-12T06:34:25.891Z,72.79
2018-05-12T06:35:30.394Z,72.62
2018-05-12T06:36:34.891Z,72.66
2018-05-12T06:37:39.447Z,72.53
2018-05-12T06:38:43.976Z,72.38
2018-05-12T06:39:48.487Z,72.32
2018-05-12T06:40:53.417Z,72.21
2018-05-12T06:41:58.173Z,71.79
2018-05-12T06:43:02.662Z,71.77
2018-05-12T06:44:07.190Z,71.78
2018-05-12T06:45:11.693Z,71.55
2018-05-12T06:46:16.281Z,71.22
2018-05-12T06:47:21.206Z,70.92
2018-05-12T06:48:26.273Z,70.65
2018-05-12T06:49:32.124Z,70.31
2018-05-12T06:50:36.627Z,70.34
2018-05-12T06:51:41.208Z,69.93
2018-05-12T06:52:45.809Z,69.84
2018-05-12T06:53:50.876Z,69.66
2018-05-12T06:54:55.450Z,69.59
2018-05-12T06:55:59.957Z,69.53
2018-05-12T06:57:04.515Z,69.29
2018-05-12T06:58:09.000Z,69.35
2018-05-12T06:59:13.550Z,68.97
2018-05-12T07:00:18.069Z,68.85
2018-05-12T07:01:22.623Z,68.58
2018-05-12T07:02:27.151Z,68.53
2018-05-12T07:03:31.734Z,68.62
2018-05-12T07:04:36.242Z,68.44
2018-05-12T07:05:41.085Z,68.19
2018-05-12T07:06:45.589Z,68.19
2018-05-12T07:07:50.101Z,68.21
2018-05-12T07:08:54.617Z,68.16
2018-05-12T07:09:59.138Z,68.08
2018-05-12T07:11:04.049Z,67.77
2018-05-12T07:12:08.864Z,67.51
2018-05-12T07:13:13.379Z,67.17
2018-05-12T07:14:17.962Z,67.30
2018-05-12T07:15:22.455Z,67.14
2018-05-12T07:16:26.948Z,66.61
2018-05-12T07:17:31.870Z,66.11
2018-05-12T07:18:36.716Z,65.91
2018-05-12T07:19:41.230Z,65.89
2018-05-12T07:20:46.634Z,66.07
2018-05-12T07:21:51.136Z,65.75
2018-05-12T07:22:55.649Z,65.55
2018-05-12T07:24:00.195Z,65.29
2018-05-12T07:25:05.026Z,65.16
2018-05-12T07:26:09.556Z,64.94
2018-05-12T07:27:14.051Z,64.75
2018-05-12T07:28:18.568Z,64.25
2018-05-12T07:29:23.066Z,63.87
2018-05-12T07:30:27.632Z,63.75
2018-05-12T07:31:32.455Z,64.40
2018-05-12T07:32:37.149Z,64.88
2018-05-12T07:33:41.872Z,64.86
2018-05-12T07:34:46.585Z,64.67
2018-05-12T07:35:51.187Z,64.43
2018-05-12T07:36:55.699Z,64.68
2018-05-12T07:38:00.560Z,64.34
2018-05-12T07:39:05.348Z,64.22
2018-05-12T07:40:09.912Z,63.80
2018-05-12T07:41:14.366Z,63.34
2018-05-12T07:42:18.915Z,63.04
2018-05-12T07:43:23.739Z,62.52
2018-05-12T07:44:28.680Z,62.16
2018-05-12T07:45:33.602Z,62.00
2018-05-12T07:46:38.119Z,61.68
2018-05-12T07:47:42.644Z,61.60
2018-05-12T07:48:47.192Z,61.54
2018-05-12T07:49:53.085Z,61.14
2018-05-12T07:50:58.624Z,60.46
2018-05-12T07:52:03.322Z,60.76
2018-05-12T07:53:07.937Z,60.59
2018-05-12T07:54:12.445Z,60.63
2018-05-12T07:55:17.023Z,60.84
2018-05-12T07:56:21.652Z,60.78
2018-05-12T07:57:26.666Z,60.67
2018-05-12T07:58:31.294Z,60.58
2018-05-12T07:59:35.955Z,60.07
2018-05-12T08:00:40.532Z,59.97
2018-05-12T08:01:45.302Z,60.16
2018-05-12T08:02:49.937Z,59.96
2018-05-12T08:03:54.804Z,60.04
2018-05-12T08:04:59.572Z,59.72
2018-05-12T08:06:05.250Z,59.75
2018-05-12T08:07:11.914Z,59.52
2018-05-12T08:08:16.807Z,59.10
2018-05-12T08:09:21.426Z,59.02
2018-05-12T08:10:27.393Z,58.83
2018-05-12T08:11:31.981Z,58.24
2018-05-12T08:12:37.347Z,58.13
2018-05-12T08:13:41.962Z,57.74
2018-05-12T08:14:46.521Z,57.65
2018-05-12T08:15:51.004Z,57.77
2018-05-12T08:16:55.552Z,57.70
2018-05-12T08:18:00.194Z,57.82
2018-05-12T08:19:04.815Z,57.36
2018-05-12T08:20:09.341Z,57.03
2018-05-12T08:21:13.889Z,56.85
2018-05-12T08:22:20.625Z,56.36
2018-05-12T08:23:26.342Z,55.54
2018-05-12T08:24:30.989Z,55.07
2018-05-12T08:25:35.532Z,54.72
2018-05-12T08:26:40.103Z,54.71
2018-05-12T08:27:44.577Z,54.89
2018-05-12T08:28:49.141Z,54.80
2018-05-12T08:29:54.039Z,54.76
2018-05-12T08:30:58.714Z,54.50
2018-05-12T08:32:03.716Z,53.92
2018-05-12T08:33:08.998Z,53.44
2018-05-12T08:34:13.978Z,53.32
2018-05-12T08:35:18.530Z,52.84
2018-05-12T08:36:24.113Z,52.97
2018-05-12T08:37:28.619Z,53.14
2018-05-12T08:38:33.195Z,52.87
2018-05-12T08:39:37.842Z,52.81
2018-05-12T08:40:42.333Z,53.11
2018-05-12T08:41:46.938Z,53.21
2018-05-12T08:42:52.410Z,53.07
2018-05-12T08:43:56.927Z,53.33
2018-05-12T08:45:03.901Z,53.10
2018-05-12T08:46:08.386Z,53.15
2018-05-12T08:47:12.908Z,53.20
2018-05-12T08:48:17.517Z,53.00
2018-05-12T08:49:22.266Z,52.76
2018-05-12T08:50:26.905Z,52.32
2018-05-12T08:51:31.404Z,52.07
2018-05-12T08:52:36.002Z,51.59
2018-05-12T08:53:40.650Z,50.72
2018-05-12T08:54:45.194Z,50.22
2018-05-12T08:55:50.155Z,49.84
2018-05-12T08:56:54.774Z,49.62
2018-05-12T08:57:59.305Z,49.05
2018-05-12T08:59:04.733Z,49.09
2018-05-12T09:00:09.332Z,49.46
2018-05-12T09:01:14.003Z,49.42
2018-05-12T09:02:18.869Z,49.15
2018-05-12T09:03:23.453Z,48.87
2018-05-12T09:04:28.256Z,48.73
2018-05-12T09:05:32.858Z,49.01
2018-05-12T09:06:37.562Z,47.95
2018-05-12T09:07:42.158Z,47.56
2018-05-12T09:08:47.002Z,47.37
2018-05-12T09:09:51.507Z,46.72
2018-05-12T09:10:56.105Z,46.38
2018-05-12T09:12:01.705Z,46.18
2018-05-12T09:13:06.651Z,46.16
2018-05-12T09:14:14.551Z,45.96
2018-05-12T09:15:20.569Z,46.05
2018-05-12T09:16:25.336Z,45.83
2018-05-12T09:17:29.872Z,45.45
2018-05-12T09:18:34.595Z,45.14
2018-05-12T09:19:39.473Z,44.71
2018-05-12T09:20:44.126Z,44.65
2018-05-12T09:21:49.149Z,44.84
2018-05-12T09:22:53.758Z,45.01
2018-05-12T09:23:58.335Z,44.72
2018-05-12T09:25:03.007Z,44.88
2018-05-12T09:26:07.643Z,44.34
2018-05-12T09:27:12.347Z,44.33
2018-05-12T09:28:17.257Z,44.51
2018-05-12T09:29:21.741Z,44.34
2018-05-12T09:30:26.612Z,43.80
2018-05-12T09:31:31.195Z,43.57
2018-05-12T09:32:35.755Z,43.37
2018-05-12T09:33:40.301Z,43.71
2018-05-12T09:34:45.121Z,43.66
2018-05-12T09:35:49.653Z,43.95
2018-05-12T09:36:54.168Z,44.02
2018-05-12T09:37:58.660Z,44.03
2018-05-12T09:39:03.348Z,44.11
2018-05-12T09:40:07.902Z,43.69
2018-05-12T09:41:12.889Z,43.69
2018-05-12T09:42:17.510Z,43.33
2018-05-12T09:43:22.051Z,42.96
2018-05-12T09:44:26.509Z,42.31
2018-05-12T09:45:31.053Z,42.35
2018-05-12T09:46:35.920Z,42.42
2018-05-12T09:47:40.819Z,42.36
2018-05-12T09:48:45.490Z,42.22
2018-05-12T09:49:50.138Z,42.02
2018-05-12T09:50:55.756Z,41.69
2018-05-12T09:52:00.330Z,41.59
2018-05-12T09:53:05.029Z,42.08
2018-05-12T09:54:09.912Z,42.04
2018-05-12T09:55:14.491Z,41.68
2018-05-12T09:56:19.066Z,41.72
2018-05-12T09:57:23.675Z,41.45
2018-05-12T09:58:28.341Z,41.21
2018-05-12T09:59:32.917Z,40.88
2018-05-12T10:00:37.841Z,40.72
2018-05-12T10:01:42.444Z,40.40
2018-05-12T10:02:47.103Z,40.65
2018-05-12T10:03:51.751Z,40.40
2018-05-12T10:04:56.369Z,40.16
2018-05-12T10:06:01.173Z,39.66
2018-05-12T10:07:07.979Z,39.44
2018-05-12T10:08:12.742Z,39.39
2018-05-12T10:09:17.338Z,39.16
2018-05-12T10:10:21.970Z,38.97
2018-05-12T10:11:26.612Z,38.87
2018-05-12T10:12:33.285Z,39.04
2018-05-12T10:13:37.921Z,38.71
2018-05-12T10:14:42.481Z,38.45
2018-05-12T10:15:47.251Z,38.77
2018-05-12T10:16:51.888Z,38.82
2018-05-12T10:17:57.128Z,39.07
2018-05-12T10:19:02.254Z,39.17
2018-05-12T10:20:06.916Z,39.18
2018-05-12T10:21:11.512Z,39.46
2018-05-12T10:22:16.229Z,39.65
2018-05-12T10:23:20.869Z,39.63
2018-05-12T10:24:26.192Z,39.53
2018-05-12T10:25:31.146Z,39.55
2018-05-12T10:26:36.322Z,39.69
2018-05-12T10:27:43.493Z,39.40
2018-05-12T10:28:48.340Z,39.54
2018-05-12T10:29:52.880Z,39.21
2018-05-12T10:30:58.319Z,39.07
2018-05-12T10:32:03.509Z,39.16
2018-05-12T10:33:08.025Z,38.82
2018-05-12T10:34:12.554Z,38.72
2018-05-12T10:35:17.039Z,38.32
2018-05-12T10:36:21.566Z,38.38
2018-05-12T10:37:26.178Z,38.38
2018-05-12T10:38:30.986Z,38.42
2018-05-12T10:39:36.345Z,38.44
2018-05-12T10:40:41.431Z,38.17
2018-05-12T10:41:46.265Z,38.26
2018-05-12T10:42:51.099Z,38.02
2018-05-12T10:43:55.689Z,37.86
2018-05-12T10:45:00.595Z,37.83
2018-05-12T10:46:05.324Z,37.54
2018-05-12T10:47:10.013Z,37.26
2018-05-12T10:48:14.901Z,37.22
2018-05-12T10:49:19.421Z,36.93
2018-05-12T10:50:24.066Z,37.05
2018-05-12T10:51:29.021Z,36.81
2018-05-12T10:52:33.580Z,36.39
2018-05-12T10:53:38.194Z,36.45
2018-05-12T10:54:43.416Z,36.46
2018-05-12T10:55:48.007Z,36.40
2018-05-12T10:56:52.695Z,36.44
2018-05-12T10:57:57.777Z,36.54
2018-05-12T10:59:03.402Z,36.80
2018-05-12T11:00:08.367Z,37.02
2018-05-12T11:01:12.991Z,37.13
2018-05-12T11:02:17.546Z,37.24
2018-05-12T11:03:23.828Z,36.86
2018-05-12T11:04:29.171Z,36.75
2018-05-12T11:05:34.536Z,37.11
2018-05-12T11:06:39.562Z,36.91
2018-05-12T11:07:44.840Z,37.00
2018-05-12T11:08:49.601Z,37.30
2018-05-12T11:09:54.405Z,37.47
2018-05-12T11:10:59.303Z,37.69
2018-05-12T11:12:04.359Z,37.48
2018-05-12T11:13:08.918Z,37.61
2018-05-12T11:14:13.479Z,37.49
2018-05-12T11:15:18.785Z,37.39
2018-05-12T11:16:23.580Z,37.24
2018-05-12T11:17:28.230Z,37.13
2018-05-12T11:18:32.807Z,36.90
2018-05-12T11:19:37.379Z,36.61
2018-05-12T11:20:41.965Z,37.28
2018-05-12T11:21:46.615Z,37.51
2018-05-12T11:22:51.558Z,37.70
2018-05-12T11:23:56.603Z,37.73
2018-05-12T11:25:01.283Z,37.72
2018-05-12T11:26:07.867Z,37.46
2018-05-12T11:27:12.628Z,37.35
2018-05-12T11:28:17.374Z,37.50
2018-05-12T11:29:22.291Z,37.62
2018-05-12T11:30:26.929Z,37.02
2018-05-12T11:31:31.513Z,37.13
2018-05-12T11:32:36.037Z,37.25
2018-05-12T11:33:40.661Z,37.37
2018-05-12T11:34:45.279Z,37.42
2018-05-12T11:35:50.398Z,37.13
2018-05-12T11:36:54.987Z,36.67
2018-05-12T11:37:59.551Z,36.54
2018-05-12T11:39:04.881Z,36.72
2018-05-12T11:40:12.387Z,36.56
2018-05-12T11:41:17.298Z,36.19
2018-05-12T11:42:22.173Z,36.19
2018-05-12T11:43:26.791Z,36.48
2018-05-12T11:44:31.439Z,36.46
2018-05-12T11:45:36.304Z,36.17
2018-05-12T11:46:41.773Z,36.17
2018-05-12T11:47:46.816Z,36.24
2018-05-12T11:48:51.785Z,36.72
2018-05-12T11:49:56.320Z,37.49
2018-05-12T11:51:01.011Z,37.47
2018-05-12T11:52:06.065Z,36.60
2018-05-12T11:53:10.682Z,36.82
2018-05-12T11:54:15.324Z,36.95
2018-05-12T11:55:20.388Z,36.92
2018-05-12T11:56:24.997Z,36.81
2018-05-12T11:57:29.736Z,36.68
2018-05-12T11:58:34.586Z,36.47
2018-05-12T11:59:39.733Z,36.59
2018-05-12T12:00:44.447Z,36.55
2018-05-12T12:01:49.357Z,36.36
2018-05-12T12:02:54.190Z,35.86
2018-05-12T12:03:58.705Z,36.32
2018-05-12T12:05:05.055Z,36.70
2018-05-12T12:06:11.990Z,37.19
2018-05-12T12:07:18.181Z,37.27
2018-05-12T12:08:23.318Z,37.22
2018-05-12T12:09:27.826Z,36.84
2018-05-12T12:10:33.389Z,36.78
2018-05-12T12:11:38.279Z,36.79
2018-05-12T12:12:42.835Z,36.35
2018-05-12T12:13:47.983Z,36.12
2018-05-12T12:14:53.235Z,35.67
2018-05-12T12:15:58.139Z,35.41
2018-05-12T12:17:03.107Z,35.36
2018-05-12T12:18:07.912Z,35.63
2018-05-12T12:19:13.663Z,36.17
2018-05-12T12:20:18.785Z,36.48
2018-05-12T12:21:23.451Z,36.31
2018-05-12T12:22:28.050Z,36.59
2018-05-12T12:23:32.930Z,36.61
2018-05-12T12:24:38.322Z,36.00
2018-05-12T12:25:43.535Z,35.42
2018-05-12T12:26:48.958Z,34.98
2018-05-12T12:27:53.485Z,35.38
2018-05-12T12:28:58.129Z,35.63
2018-05-12T12:30:02.891Z,36.26
2018-05-12T12:31:07.425Z,36.53
2018-05-12T12:32:12.008Z,36.74
2018-05-12T12:33:18.111Z,36.77
2018-05-12T12:34:22.656Z,36.72
2018-05-12T12:35:27.163Z,36.64
2018-05-12T12:36:31.726Z,36.86
2018-05-12T12:37:36.230Z,36.97
2018-05-12T12:38:41.620Z,36.54
2018-05-12T12:39:47.027Z,36.22
2018-05-12T12:40:51.700Z,35.53
2018-05-12T12:41:56.322Z,35.24
2018-05-12T12:43:00.843Z,35.41
2018-05-12T12:44:05.362Z,35.23
2018-05-12T12:45:10.455Z,34.99
2018-05-12T12:46:14.985Z,34.64
2018-05-12T12:47:19.508Z,34.81
2018-05-12T12:48:24.032Z,34.77
2018-05-12T12:49:28.532Z,35.07
2018-05-12T12:50:33.139Z,35.55
2018-05-12T12:51:38.273Z,35.87
2018-05-12T12:52:42.840Z,35.76
2018-05-12T12:53:48.782Z,35.74
2018-05-12T12:54:53.375Z,35.48
2018-05-12T12:55:57.865Z,35.00
2018-05-12T12:57:03.123Z,34.99
2018-05-12T12:58:07.613Z,34.72
2018-05-12T12:59:12.126Z,34.53
2018-05-12T13:00:16.586Z,34.67
2018-05-12T13:01:21.106Z,34.49
2018-05-12T13:02:25.987Z,34.01
2018-05-12T13:03:30.530Z,34.13
2018-05-12T13:04:35.154Z,34.72
2018-05-12T13:05:39.667Z,35.18
2018-05-12T13:06:44.575Z,35.09
2018-05-12T13:07:49.114Z,34.72
2018-05-12T13:08:53.940Z,34.58
2018-05-12T13:09:58.556Z,34.73
2018-05-12T13:11:03.213Z,34.60
2018-05-12T13:12:07.724Z,34.49
2018-05-12T13:13:12.585Z,34.27
2018-05-12T13:14:17.124Z,34.72
2018-05-12T13:15:22.006Z,35.02
2018-05-12T13:16:26.482Z,35.45
2018-05-12T13:17:31.533Z,35.50
2018-05-12T13:18:36.768Z,35.33
2018-05-12T13:19:41.244Z,35.42
2018-05-12T13:20:46.555Z,35.62
2018-05-12T13:21:51.374Z,35.73
2018-05-12T13:22:56.040Z,35.72
2018-05-12T13:24:00.727Z,35.61
2018-05-12T13:25:05.242Z,35.51
2018-05-12T13:26:09.755Z,35.25
2018-05-12T13:27:14.778Z,35.14
2018-05-12T13:28:19.602Z,35.18
2018-05-12T13:29:24.101Z,34.99
2018-05-12T13:30:28.588Z,34.62
2018-05-12T13:31:33.363Z,34.43
2018-05-12T13:32:37.973Z,34.28
2018-05-12T13:33:42.935Z,33.95
2018-05-12T13:34:50.020Z,33.70
2018-05-12T13:35:57.056Z,33.32
2018-05-12T13:37:01.985Z,32.94
2018-05-12T13:38:09.363Z,32.77
2018-05-12T13:39:13.984Z,32.91
2018-05-12T13:40:18.575Z,32.90
2018-05-12T13:41:23.590Z,32.81
2018-05-12T13:42:28.274Z,32.98
2018-05-12T13:43:32.893Z,33.27
2018-05-12T13:44:38.335Z,33.56
2018-05-12T13:45:47.455Z,33.22
2018-05-12T13:46:52.044Z,33.18
2018-05-12T13:47:57.054Z,32.81
2018-05-12T13:49:01.694Z,32.67
2018-05-12T13:50:09.719Z,32.61
2018-05-12T13:51:14.472Z,32.60
2018-05-12T13:52:19.175Z,32.50
2018-05-12T13:53:23.853Z,32.35
2018-05-12T13:54:29.515Z,32.02
2018-05-12T13:55:34.578Z,31.61
2018-05-12T13:56:39.262Z,31.87
2018-05-12T13:57:44.553Z,32.01
2018-05-12T13:58:49.734Z,32.09